sensor_id;sensor_type;location;lat;lon;timestamp;temperature;humidity
63313;DHT22;49442;45.640;13.812;2024-03-07T00:02:13;9.40;99.90
63313;DHT22;49442;45.640;13.812;2024-03-07T00:04:39;9.50;99.90
63313;DHT22;49442;45.640;13.812;2024-03-07T00:07:05;9.50;99.90
63313;DHT22;49442;45.640;13.812;2024-03-07T00:09:33;9.60;99.90
63313;DHT22;49442;45.640;13.812;2024-03-07T00:12:00;9.60;99.90
63313;DHT22;49442;45.640;13.812;2024-03-07T00:14:26;9.60;99.90
63313;DHT22;49442;45.640;13.812;2024-03-07T00:16:56;9.70;99.90
63313;DHT22;49442;45.640;13.812;2024-03-07T00:19:21;9.70;99.90
63313;DHT22;49442;45.640;13.812;2024-03-07T00:21:51;9.70;99.90
63313;DHT22;49442;45.640;13.812;2024-03-07T00:24:16;9.70;99.90
63313;DHT22;49442;45.640;13.812;2024-03-07T00:26:42;9.70;99.90
63313;DHT22;49442;45.640;13.812;2024-03-07T00:29:08;9.70;99.90
63313;DHT22;49442;45.640;13.812;2024-03-07T00:31:34;9.60;99.90
63313;DHT22;49442;45.640;13.812;2024-03-07T00:33:59;9.70;99.90
63313;DHT22;49442;45.640;13.812;2024-03-07T00:36:25;9.70;99.90
63313;DHT22;49442;45.640;13.812;2024-03-07T00:38:52;9.70;99.90
63313;DHT22;49442;45.640;13.812;2024-03-07T00:41:19;9.80;99.90
63313;DHT22;49442;45.640;13.812;2024-03-07T00:43:46;9.80;99.90
63313;DHT22;49442;45.640;13.812;2024-03-07T00:46:12;9.80;99.90
63313;DHT22;49442;45.640;13.812;2024-03-07T00:48:37;9.80;99.90
63313;DHT22;49442;45.640;13.812;2024-03-07T00:51:06;9.80;99.90
63313;DHT22;49442;45.640;13.812;2024-03-07T00:53:34;9.70;99.90
63313;DHT22;49442;45.640;13.812;2024-03-07T00:56:00;9.80;99.90
63313;DHT22;49442;45.640;13.812;2024-03-07T00:58:25;9.80;99.90
63313;DHT22;49442;45.640;13.812;2024-03-07T01:00:53;9.80;99.90
63313;DHT22;49442;45.640;13.812;2024-03-07T01:03:18;9.80;99.90
63313;DHT22;49442;45.640;13.812;2024-03-07T01:05:44;9.80;99.90
63313;DHT22;49442;45.640;13.812;2024-03-07T01:08:11;9.80;99.90
63313;DHT22;49442;45.640;13.812;2024-03-07T01:10:36;9.80;99.90
63313;DHT22;49442;45.640;13.812;2024-03-07T01:13:02;9.80;99.90
63313;DHT22;49442;45.640;13.812;2024-03-07T01:15:32;9.80;99.90
63313;DHT22;49442;45.640;13.812;2024-03-07T01:17:58;9.80;99.90
63313;DHT22;49442;45.640;13.812;2024-03-07T01:20:23;9.80;99.90
63313;DHT22;49442;45.640;13.812;2024-03-07T01:22:51;9.80;99.90
63313;DHT22;49442;45.640;13.812;2024-03-07T01:25:17;9.80;99.90
63313;DHT22;49442;45.640;13.812;2024-03-07T01:27:43;9.80;99.90
63313;DHT22;49442;45.640;13.812;2024-03-07T01:30:10;9.80;99.90
63313;DHT22;49442;45.640;13.812;2024-03-07T01:32:35;9.80;99.90
63313;DHT22;49442;45.640;13.812;2024-03-07T01:35:01;9.80;99.90
63313;DHT22;49442;45.640;13.812;2024-03-07T01:37:27;9.70;99.90
63313;DHT22;49442;45.640;13.812;2024-03-07T01:39:54;9.80;99.90
63313;DHT22;49442;45.640;13.812;2024-03-07T01:42:20;9.70;99.90
63313;DHT22;49442;45.640;13.812;2024-03-07T01:44:45;9.70;99.90
63313;DHT22;49442;45.640;13.812;2024-03-07T01:47:12;9.70;99.90
63313;DHT22;49442;45.640;13.812;2024-03-07T01:49:40;9.60;99.90
63313;DHT22;49442;45.640;13.812;2024-03-07T01:52:05;9.60;99.90
63313;DHT22;49442;45.640;13.812;2024-03-07T01:54:32;9.60;99.90
63313;DHT22;49442;45.640;13.812;2024-03-07T01:56:58;9.60;99.90
63313;DHT22;49442;45.640;13.812;2024-03-07T01:59:24;9.50;99.90
63313;DHT22;49442;45.640;13.812;2024-03-07T02:01:50;9.50;99.90
63313;DHT22;49442;45.640;13.812;2024-03-07T02:04:16;9.50;99.90
63313;DHT22;49442;45.640;13.812;2024-03-07T02:06:42;9.40;99.90
63313;DHT22;49442;45.640;13.812;2024-03-07T02:09:08;9.30;99.90
63313;DHT22;49442;45.640;13.812;2024-03-07T02:11:34;9.30;99.90
63313;DHT22;49442;45.640;13.812;2024-03-07T02:13:59;9.30;99.90
63313;DHT22;49442;45.640;13.812;2024-03-07T02:16:25;9.40;99.90
63313;DHT22;49442;45.640;13.812;2024-03-07T02:18:51;9.40;99.90
63313;DHT22;49442;45.640;13.812;2024-03-07T02:21:17;9.40;99.90
63313;DHT22;49442;45.640;13.812;2024-03-07T02:23:42;9.40;99.90
63313;DHT22;49442;45.640;13.812;2024-03-07T02:26:09;9.40;99.90
63313;DHT22;49442;45.640;13.812;2024-03-07T02:28:35;9.40;99.90
63313;DHT22;49442;45.640;13.812;2024-03-07T02:31:01;9.40;99.90
63313;DHT22;49442;45.640;13.812;2024-03-07T02:33:27;9.40;99.90
63313;DHT22;49442;45.640;13.812;2024-03-07T02:35:53;9.50;99.90
63313;DHT22;49442;45.640;13.812;2024-03-07T02:38:19;9.50;99.90
63313;DHT22;49442;45.640;13.812;2024-03-07T02:40:45;9.50;99.90
63313;DHT22;49442;45.640;13.812;2024-03-07T02:43:12;9.50;99.90
63313;DHT22;49442;45.640;13.812;2024-03-07T02:45:38;9.40;99.90
63313;DHT22;49442;45.640;13.812;2024-03-07T02:48:04;9.40;99.90
63313;DHT22;49442;45.640;13.812;2024-03-07T02:50:32;9.40;99.90
63313;DHT22;49442;45.640;13.812;2024-03-07T02:52:58;9.40;99.90
63313;DHT22;49442;45.640;13.812;2024-03-07T02:55:24;9.40;99.90
63313;DHT22;49442;45.640;13.812;2024-03-07T02:57:49;9.30;99.90
63313;DHT22;49442;45.640;13.812;2024-03-07T03:00:16;9.40;99.90
63313;DHT22;49442;45.640;13.812;2024-03-07T03:02:52;9.30;99.90
63313;DHT22;49442;45.640;13.812;2024-03-07T03:05:18;9.40;99.90
63313;DHT22;49442;45.640;13.812;2024-03-07T03:07:44;9.40;99.90
63313;DHT22;49442;45.640;13.812;2024-03-07T03:10:12;9.30;99.90
63313;DHT22;49442;45.640;13.812;2024-03-07T03:12:40;9.20;99.90
63313;DHT22;49442;45.640;13.812;2024-03-07T03:15:07;9.20;99.90
63313;DHT22;49442;45.640;13.812;2024-03-07T03:17:32;9.10;99.90
63313;DHT22;49442;45.640;13.812;2024-03-07T03:19:59;9.20;99.90
63313;DHT22;49442;45.640;13.812;2024-03-07T03:22:25;9.10;99.90
63313;DHT22;49442;45.640;13.812;2024-03-07T03:24:52;9.10;99.90
63313;DHT22;49442;45.640;13.812;2024-03-07T03:27:21;9.10;99.90
63313;DHT22;49442;45.640;13.812;2024-03-07T03:29:47;9.00;99.90
63313;DHT22;49442;45.640;13.812;2024-03-07T03:32:13;9.00;99.90
63313;DHT22;49442;45.640;13.812;2024-03-07T03:34:39;9.20;99.90
63313;DHT22;49442;45.640;13.812;2024-03-07T03:37:06;9.10;99.90
63313;DHT22;49442;45.640;13.812;2024-03-07T03:39:31;9.00;99.90
63313;DHT22;49442;45.640;13.812;2024-03-07T03:41:58;8.90;99.90
63313;DHT22;49442;45.640;13.812;2024-03-07T03:44:23;8.90;99.90
63313;DHT22;49442;45.640;13.812;2024-03-07T03:46:49;9.00;99.90
63313;DHT22;49442;45.640;13.812;2024-03-07T03:49:15;8.90;99.90
63313;DHT22;49442;45.640;13.812;2024-03-07T03:51:41;8.90;99.90
63313;DHT22;49442;45.640;13.812;2024-03-07T03:54:07;9.00;99.90
63313;DHT22;49442;45.640;13.812;2024-03-07T03:56:32;9.00;99.90
63313;DHT22;49442;45.640;13.812;2024-03-07T03:58:58;8.90;99.90
63313;DHT22;49442;45.640;13.812;2024-03-07T04:01:23;8.90;99.90
63313;DHT22;49442;45.640;13.812;2024-03-07T04:03:49;8.90;99.90
63313;DHT22;49442;45.640;13.812;2024-03-07T04:06:15;8.80;99.90
63313;DHT22;49442;45.640;13.812;2024-03-07T04:08:40;8.90;99.90
63313;DHT22;49442;45.640;13.812;2024-03-07T04:11:06;8.90;99.90
63313;DHT22;49442;45.640;13.812;2024-03-07T04:13:35;8.80;99.90
63313;DHT22;49442;45.640;13.812;2024-03-07T04:16:01;8.90;99.90
63313;DHT22;49442;45.640;13.812;2024-03-07T04:18:26;8.80;99.90
63313;DHT22;49442;45.640;13.812;2024-03-07T04:20:52;8.80;99.90
63313;DHT22;49442;45.640;13.812;2024-03-07T04:23:17;8.70;99.90
63313;DHT22;49442;45.640;13.812;2024-03-07T04:25:44;8.80;99.90
63313;DHT22;49442;45.640;13.812;2024-03-07T04:28:09;8.70;99.90
63313;DHT22;49442;45.640;13.812;2024-03-07T04:30:35;8.70;99.90
63313;DHT22;49442;45.640;13.812;2024-03-07T04:33:01;8.70;99.90
63313;DHT22;49442;45.640;13.812;2024-03-07T04:35:27;8.80;99.90
63313;DHT22;49442;45.640;13.812;2024-03-07T04:37:52;8.80;99.90
63313;DHT22;49442;45.640;13.812;2024-03-07T04:40:18;8.90;99.90
63313;DHT22;49442;45.640;13.812;2024-03-07T04:42:48;8.80;99.90
63313;DHT22;49442;45.640;13.812;2024-03-07T04:45:17;8.80;99.90
63313;DHT22;49442;45.640;13.812;2024-03-07T04:47:44;8.80;99.90
63313;DHT22;49442;45.640;13.812;2024-03-07T04:50:10;8.80;99.90
63313;DHT22;49442;45.640;13.812;2024-03-07T04:52:37;8.90;99.90
63313;DHT22;49442;45.640;13.812;2024-03-07T04:55:07;8.90;99.90
63313;DHT22;49442;45.640;13.812;2024-03-07T04:57:35;8.90;99.90
63313;DHT22;49442;45.640;13.812;2024-03-07T05:00:01;9.00;99.90
63313;DHT22;49442;45.640;13.812;2024-03-07T05:02:26;8.90;99.90
63313;DHT22;49442;45.640;13.812;2024-03-07T05:04:52;8.90;99.90
63313;DHT22;49442;45.640;13.812;2024-03-07T05:07:18;8.80;99.90
63313;DHT22;49442;45.640;13.812;2024-03-07T05:09:44;8.90;99.90
63313;DHT22;49442;45.640;13.812;2024-03-07T05:12:10;8.90;99.90
63313;DHT22;49442;45.640;13.812;2024-03-07T05:14:36;9.00;99.90
63313;DHT22;49442;45.640;13.812;2024-03-07T05:17:02;8.80;99.90
63313;DHT22;49442;45.640;13.812;2024-03-07T05:19:33;8.70;99.90
63313;DHT22;49442;45.640;13.812;2024-03-07T05:22:00;8.70;99.90
63313;DHT22;49442;45.640;13.812;2024-03-07T05:24:26;8.70;99.90
63313;DHT22;49442;45.640;13.812;2024-03-07T05:26:52;8.60;99.90
63313;DHT22;49442;45.640;13.812;2024-03-07T05:29:19;8.60;99.90
63313;DHT22;49442;45.640;13.812;2024-03-07T05:31:45;8.60;99.90
63313;DHT22;49442;45.640;13.812;2024-03-07T05:34:13;8.50;99.90
63313;DHT22;49442;45.640;13.812;2024-03-07T05:36:39;8.40;99.90
63313;DHT22;49442;45.640;13.812;2024-03-07T05:39:15;8.40;99.90
63313;DHT22;49442;45.640;13.812;2024-03-07T05:41:42;8.30;99.90
63313;DHT22;49442;45.640;13.812;2024-03-07T05:44:10;8.40;99.90
63313;DHT22;49442;45.640;13.812;2024-03-07T05:46:37;8.50;99.90
63313;DHT22;49442;45.640;13.812;2024-03-07T05:49:09;8.50;99.90
63313;DHT22;49442;45.640;13.812;2024-03-07T05:51:35;8.30;99.90
63313;DHT22;49442;45.640;13.812;2024-03-07T05:54:02;8.20;99.90
63313;DHT22;49442;45.640;13.812;2024-03-07T05:56:32;8.10;99.90
63313;DHT22;49442;45.640;13.812;2024-03-07T05:59:02;8.00;99.90
63313;DHT22;49442;45.640;13.812;2024-03-07T06:01:33;7.90;99.90
63313;DHT22;49442;45.640;13.812;2024-03-07T06:04:04;7.80;99.90
63313;DHT22;49442;45.640;13.812;2024-03-07T06:06:37;7.70;99.90
63313;DHT22;49442;45.640;13.812;2024-03-07T06:09:05;7.70;99.90
63313;DHT22;49442;45.640;13.812;2024-03-07T06:11:40;7.60;99.90
63313;DHT22;49442;45.640;13.812;2024-03-07T06:14:09;7.60;99.90
63313;DHT22;49442;45.640;13.812;2024-03-07T06:16:37;7.60;99.90
63313;DHT22;49442;45.640;13.812;2024-03-07T06:19:04;7.70;99.90
63313;DHT22;49442;45.640;13.812;2024-03-07T06:21:33;7.80;99.90
63313;DHT22;49442;45.640;13.812;2024-03-07T06:24:01;7.80;99.90
63313;DHT22;49442;45.640;13.812;2024-03-07T06:26:31;8.00;99.90
63313;DHT22;49442;45.640;13.812;2024-03-07T06:29:13;8.00;99.90
63313;DHT22;49442;45.640;13.812;2024-03-07T06:31:39;8.00;99.90
63313;DHT22;49442;45.640;13.812;2024-03-07T06:34:06;7.90;99.90
63313;DHT22;49442;45.640;13.812;2024-03-07T06:36:32;8.00;99.90
63313;DHT22;49442;45.640;13.812;2024-03-07T06:38:58;8.10;99.90
63313;DHT22;49442;45.640;13.812;2024-03-07T06:41:24;8.30;99.90
63313;DHT22;49442;45.640;13.812;2024-03-07T06:43:51;8.30;99.90
63313;DHT22;49442;45.640;13.812;2024-03-07T06:46:18;8.30;99.90
63313;DHT22;49442;45.640;13.812;2024-03-07T06:48:45;8.30;99.90
63313;DHT22;49442;45.640;13.812;2024-03-07T06:51:11;8.20;99.90
63313;DHT22;49442;45.640;13.812;2024-03-07T06:53:37;8.20;99.90
63313;DHT22;49442;45.640;13.812;2024-03-07T06:56:04;8.30;99.90
63313;DHT22;49442;45.640;13.812;2024-03-07T06:58:32;8.40;99.90
63313;DHT22;49442;45.640;13.812;2024-03-07T07:00:57;8.50;99.90
63313;DHT22;49442;45.640;13.812;2024-03-07T07:03:25;8.50;99.90
63313;DHT22;49442;45.640;13.812;2024-03-07T07:05:53;8.50;99.90
63313;DHT22;49442;45.640;13.812;2024-03-07T07:08:20;8.70;99.90
63313;DHT22;49442;45.640;13.812;2024-03-07T07:10:46;8.70;99.90
63313;DHT22;49442;45.640;13.812;2024-03-07T07:13:12;8.90;99.90
63313;DHT22;49442;45.640;13.812;2024-03-07T07:15:39;8.90;99.90
63313;DHT22;49442;45.640;13.812;2024-03-07T07:18:05;8.90;99.90
63313;DHT22;49442;45.640;13.812;2024-03-07T07:20:33;8.90;99.90
63313;DHT22;49442;45.640;13.812;2024-03-07T07:23:00;9.00;99.90
63313;DHT22;49442;45.640;13.812;2024-03-07T07:25:29;9.20;99.90
63313;DHT22;49442;45.640;13.812;2024-03-07T07:27:58;9.30;99.90
63313;DHT22;49442;45.640;13.812;2024-03-07T07:30:24;9.40;99.90
63313;DHT22;49442;45.640;13.812;2024-03-07T07:33:04;9.50;99.90
63313;DHT22;49442;45.640;13.812;2024-03-07T07:35:31;9.50;99.90
63313;DHT22;49442;45.640;13.812;2024-03-07T07:37:57;9.60;99.90
63313;DHT22;49442;45.640;13.812;2024-03-07T07:40:23;9.70;99.90
63313;DHT22;49442;45.640;13.812;2024-03-07T07:42:51;9.70;99.90
63313;DHT22;49442;45.640;13.812;2024-03-07T07:45:18;9.80;99.90
63313;DHT22;49442;45.640;13.812;2024-03-07T07:47:49;9.80;99.90
63313;DHT22;49442;45.640;13.812;2024-03-07T07:50:17;9.90;99.90
63313;DHT22;49442;45.640;13.812;2024-03-07T07:52:46;10.00;99.90
63313;DHT22;49442;45.640;13.812;2024-03-07T07:55:14;10.00;99.90
63313;DHT22;49442;45.640;13.812;2024-03-07T07:57:44;10.10;99.90
63313;DHT22;49442;45.640;13.812;2024-03-07T08:00:15;10.20;99.90
63313;DHT22;49442;45.640;13.812;2024-03-07T08:05:23;10.50;99.90
63313;DHT22;49442;45.640;13.812;2024-03-07T08:07:54;10.60;99.90
63313;DHT22;49442;45.640;13.812;2024-03-07T08:10:20;10.80;99.90
63313;DHT22;49442;45.640;13.812;2024-03-07T08:12:48;10.80;99.90
63313;DHT22;49442;45.640;13.812;2024-03-07T08:15:14;11.00;99.90
63313;DHT22;49442;45.640;13.812;2024-03-07T08:17:45;11.10;99.90
63313;DHT22;49442;45.640;13.812;2024-03-07T08:20:15;11.30;99.90
63313;DHT22;49442;45.640;13.812;2024-03-07T08:22:42;11.50;99.90
63313;DHT22;49442;45.640;13.812;2024-03-07T08:25:15;11.60;99.90
63313;DHT22;49442;45.640;13.812;2024-03-07T08:27:42;11.70;99.90
63313;DHT22;49442;45.640;13.812;2024-03-07T08:30:10;11.90;99.90
63313;DHT22;49442;45.640;13.812;2024-03-07T08:35:07;12.20;99.90
63313;DHT22;49442;45.640;13.812;2024-03-07T08:37:42;12.30;99.90
63313;DHT22;49442;45.640;13.812;2024-03-07T08:40:09;12.50;99.90
63313;DHT22;49442;45.640;13.812;2024-03-07T08:42:37;12.80;99.90
63313;DHT22;49442;45.640;13.812;2024-03-07T08:45:04;13.20;99.90
63313;DHT22;49442;45.640;13.812;2024-03-07T08:47:34;13.90;99.90
63313;DHT22;49442;45.640;13.812;2024-03-07T08:50:01;14.20;99.90
63313;DHT22;49442;45.640;13.812;2024-03-07T08:52:31;14.50;99.90
63313;DHT22;49442;45.640;13.812;2024-03-07T08:54:57;15.10;99.90
63313;DHT22;49442;45.640;13.812;2024-03-07T08:57:23;15.50;99.90
63313;DHT22;49442;45.640;13.812;2024-03-07T08:59:49;15.80;99.90
63313;DHT22;49442;45.640;13.812;2024-03-07T09:02:15;16.40;99.80
63313;DHT22;49442;45.640;13.812;2024-03-07T09:04:41;17.60;97.00
63313;DHT22;49442;45.640;13.812;2024-03-07T09:07:07;19.30;94.10
63313;DHT22;49442;45.640;13.812;2024-03-07T09:09:33;19.70;89.30
63313;DHT22;49442;45.640;13.812;2024-03-07T09:12:00;18.70;89.10
63313;DHT22;49442;45.640;13.812;2024-03-07T09:14:29;17.90;87.10
63313;DHT22;49442;45.640;13.812;2024-03-07T09:16:55;18.30;91.20
63313;DHT22;49442;45.640;13.812;2024-03-07T09:19:20;19.00;91.00
63313;DHT22;49442;45.640;13.812;2024-03-07T09:21:51;18.40;86.40
63313;DHT22;49442;45.640;13.812;2024-03-07T09:24:17;17.20;88.70
63313;DHT22;49442;45.640;13.812;2024-03-07T09:26:45;16.50;91.90
63313;DHT22;49442;45.640;13.812;2024-03-07T09:29:11;16.20;93.50
63313;DHT22;49442;45.640;13.812;2024-03-07T09:31:38;16.00;93.00
63313;DHT22;49442;45.640;13.812;2024-03-07T09:34:05;15.70;92.90
63313;DHT22;49442;45.640;13.812;2024-03-07T09:36:31;15.70;92.50
63313;DHT22;49442;45.640;13.812;2024-03-07T09:38:56;15.70;93.90
63313;DHT22;49442;45.640;13.812;2024-03-07T09:41:23;15.80;93.10
63313;DHT22;49442;45.640;13.812;2024-03-07T09:43:52;15.90;92.60
63313;DHT22;49442;45.640;13.812;2024-03-07T09:46:24;16.20;90.30
63313;DHT22;49442;45.640;13.812;2024-03-07T09:48:50;16.30;90.90
63313;DHT22;49442;45.640;13.812;2024-03-07T09:51:20;16.90;91.30
63313;DHT22;49442;45.640;13.812;2024-03-07T09:53:49;19.60;90.20
63313;DHT22;49442;45.640;13.812;2024-03-07T09:56:19;22.20;79.90
63313;DHT22;49442;45.640;13.812;2024-03-07T09:58:57;23.60;68.70
63313;DHT22;49442;45.640;13.812;2024-03-07T10:01:26;24.10;65.10
63313;DHT22;49442;45.640;13.812;2024-03-07T10:03:58;23.00;64.70
63313;DHT22;49442;45.640;13.812;2024-03-07T10:06:28;22.40;66.40
63313;DHT22;49442;45.640;13.812;2024-03-07T10:08:56;21.90;65.80
63313;DHT22;49442;45.640;13.812;2024-03-07T10:11:22;22.90;66.90
63313;DHT22;49442;45.640;13.812;2024-03-07T10:13:48;24.30;62.50
63313;DHT22;49442;45.640;13.812;2024-03-07T10:16:17;25.00;58.90
63313;DHT22;49442;45.640;13.812;2024-03-07T10:18:44;25.30;58.20
63313;DHT22;49442;45.640;13.812;2024-03-07T10:21:13;26.10;58.20
63313;DHT22;49442;45.640;13.812;2024-03-07T10:23:39;26.20;57.80
63313;DHT22;49442;45.640;13.812;2024-03-07T10:26:06;26.90;55.30
63313;DHT22;49442;45.640;13.812;2024-03-07T10:28:32;27.00;54.50
63313;DHT22;49442;45.640;13.812;2024-03-07T10:30:59;26.80;52.70
63313;DHT22;49442;45.640;13.812;2024-03-07T10:33:29;26.80;53.10
63313;DHT22;49442;45.640;13.812;2024-03-07T10:35:59;27.30;53.60
63313;DHT22;49442;45.640;13.812;2024-03-07T10:38:25;26.40;52.70
63313;DHT22;49442;45.640;13.812;2024-03-07T10:40:54;27.00;52.50
63313;DHT22;49442;45.640;13.812;2024-03-07T10:43:21;25.70;50.20
63313;DHT22;49442;45.640;13.812;2024-03-07T10:45:50;23.90;54.00
63313;DHT22;49442;45.640;13.812;2024-03-07T10:48:19;21.40;56.60
63313;DHT22;49442;45.640;13.812;2024-03-07T10:53:29;18.30;64.60
63313;DHT22;49442;45.640;13.812;2024-03-07T10:58:42;17.00;74.10
63313;DHT22;49442;45.640;13.812;2024-03-07T11:01:13;16.50;74.40
63313;DHT22;49442;45.640;13.812;2024-03-07T11:03:39;16.20;75.90
63313;DHT22;49442;45.640;13.812;2024-03-07T11:06:07;16.20;75.60
63313;DHT22;49442;45.640;13.812;2024-03-07T11:08:37;16.50;74.50
63313;DHT22;49442;45.640;13.812;2024-03-07T11:11:04;16.40;75.20
63313;DHT22;49442;45.640;13.812;2024-03-07T11:13:34;16.50;76.90
63313;DHT22;49442;45.640;13.812;2024-03-07T11:16:00;16.60;72.70
63313;DHT22;49442;45.640;13.812;2024-03-07T11:18:26;16.50;73.00
63313;DHT22;49442;45.640;13.812;2024-03-07T11:20:52;17.20;75.40
63313;DHT22;49442;45.640;13.812;2024-03-07T11:23:32;17.30;76.70
63313;DHT22;49442;45.640;13.812;2024-03-07T11:26:05;17.20;76.30
63313;DHT22;49442;45.640;13.812;2024-03-07T11:28:33;17.10;76.00
63313;DHT22;49442;45.640;13.812;2024-03-07T11:31:27;17.00;74.80
63313;DHT22;49442;45.640;13.812;2024-03-07T11:34:15;17.10;77.30
63313;DHT22;49442;45.640;13.812;2024-03-07T11:36:48;17.00;75.10
63313;DHT22;49442;45.640;13.812;2024-03-07T11:39:40;16.90;73.20
63313;DHT22;49442;45.640;13.812;2024-03-07T11:42:08;16.80;71.50
63313;DHT22;49442;45.640;13.812;2024-03-07T11:44:34;16.80;74.10
63313;DHT22;49442;45.640;13.812;2024-03-07T11:47:05;16.60;70.50
63313;DHT22;49442;45.640;13.812;2024-03-07T11:49:35;16.40;69.30
63313;DHT22;49442;45.640;13.812;2024-03-07T11:52:02;16.30;72.90
63313;DHT22;49442;45.640;13.812;2024-03-07T11:54:39;16.20;73.00
63313;DHT22;49442;45.640;13.812;2024-03-07T11:57:20;16.10;77.60
63313;DHT22;49442;45.640;13.812;2024-03-07T11:59:52;16.20;77.90
63313;DHT22;49442;45.640;13.812;2024-03-07T12:02:19;16.30;80.30
63313;DHT22;49442;45.640;13.812;2024-03-07T12:04:48;16.50;74.30
63313;DHT22;49442;45.640;13.812;2024-03-07T12:07:15;16.70;73.20
63313;DHT22;49442;45.640;13.812;2024-03-07T12:09:44;16.80;71.90
63313;DHT22;49442;45.640;13.812;2024-03-07T12:12:17;16.80;73.00
63313;DHT22;49442;45.640;13.812;2024-03-07T12:14:43;17.00;75.20
63313;DHT22;49442;45.640;13.812;2024-03-07T12:17:08;16.90;73.10
63313;DHT22;49442;45.640;13.812;2024-03-07T12:19:35;16.80;75.10
63313;DHT22;49442;45.640;13.812;2024-03-07T12:22:03;16.80;75.60
63313;DHT22;49442;45.640;13.812;2024-03-07T12:24:41;16.80;76.00
63313;DHT22;49442;45.640;13.812;2024-03-07T12:27:14;16.80;76.00
63313;DHT22;49442;45.640;13.812;2024-03-07T12:29:41;16.80;74.00
63313;DHT22;49442;45.640;13.812;2024-03-07T12:32:13;16.60;71.00
63313;DHT22;49442;45.640;13.812;2024-03-07T12:34:40;16.30;73.10
63313;DHT22;49442;45.640;13.812;2024-03-07T12:37:11;16.10;73.90
63313;DHT22;49442;45.640;13.812;2024-03-07T12:39:36;16.00;73.10
63313;DHT22;49442;45.640;13.812;2024-03-07T12:42:12;15.90;74.80
63313;DHT22;49442;45.640;13.812;2024-03-07T12:44:44;15.90;75.10
63313;DHT22;49442;45.640;13.812;2024-03-07T12:47:13;16.00;75.10
63313;DHT22;49442;45.640;13.812;2024-03-07T12:49:45;15.80;73.60
63313;DHT22;49442;45.640;13.812;2024-03-07T12:52:12;15.90;75.80
63313;DHT22;49442;45.640;13.812;2024-03-07T12:54:41;15.90;78.50
63313;DHT22;49442;45.640;13.812;2024-03-07T12:57:10;16.00;78.00
63313;DHT22;49442;45.640;13.812;2024-03-07T12:59:38;16.10;76.40
63313;DHT22;49442;45.640;13.812;2024-03-07T13:02:09;15.90;80.90
63313;DHT22;49442;45.640;13.812;2024-03-07T13:04:35;15.70;86.30
63313;DHT22;49442;45.640;13.812;2024-03-07T13:07:04;15.40;84.80
63313;DHT22;49442;45.640;13.812;2024-03-07T13:09:31;15.10;84.50
63313;DHT22;49442;45.640;13.812;2024-03-07T13:11:58;14.90;84.40
63313;DHT22;49442;45.640;13.812;2024-03-07T13:14:35;14.70;89.30
63313;DHT22;49442;45.640;13.812;2024-03-07T13:17:05;14.40;88.90
63313;DHT22;49442;45.640;13.812;2024-03-07T13:19:32;14.10;89.50
63313;DHT22;49442;45.640;13.812;2024-03-07T13:21:58;14.00;91.10
63313;DHT22;49442;45.640;13.812;2024-03-07T13:24:26;13.90;92.50
63313;DHT22;49442;45.640;13.812;2024-03-07T13:26:52;13.80;92.90
63313;DHT22;49442;45.640;13.812;2024-03-07T13:29:19;13.70;93.00
63313;DHT22;49442;45.640;13.812;2024-03-07T13:31:51;13.50;94.10
63313;DHT22;49442;45.640;13.812;2024-03-07T13:34:17;13.50;95.10
63313;DHT22;49442;45.640;13.812;2024-03-07T13:36:44;13.40;95.60
63313;DHT22;49442;45.640;13.812;2024-03-07T13:39:11;13.50;95.60
63313;DHT22;49442;45.640;13.812;2024-03-07T13:41:44;13.50;95.90
63313;DHT22;49442;45.640;13.812;2024-03-07T13:44:16;13.40;96.90
63313;DHT22;49442;45.640;13.812;2024-03-07T13:46:44;13.30;97.10
63313;DHT22;49442;45.640;13.812;2024-03-07T13:49:10;13.20;97.50
63313;DHT22;49442;45.640;13.812;2024-03-07T13:51:42;13.10;98.70
63313;DHT22;49442;45.640;13.812;2024-03-07T13:54:21;13.00;99.30
63313;DHT22;49442;45.640;13.812;2024-03-07T14:06:09;13.30;98.80
63313;DHT22;49442;45.640;13.812;2024-03-07T14:12:04;13.40;99.10
63313;DHT22;49442;45.640;13.812;2024-03-07T14:23:30;13.50;98.40
63313;DHT22;49442;45.640;13.812;2024-03-07T14:31:29;13.60;95.40
63313;DHT22;49442;45.640;13.812;2024-03-07T14:34:12;13.80;96.50
63313;DHT22;49442;45.640;13.812;2024-03-07T14:37:25;13.80;94.20
63313;DHT22;49442;45.640;13.812;2024-03-07T14:39:50;13.70;95.40
63313;DHT22;49442;45.640;13.812;2024-03-07T14:42:19;13.70;96.70
63313;DHT22;49442;45.640;13.812;2024-03-07T14:44:45;13.60;95.10
63313;DHT22;49442;45.640;13.812;2024-03-07T14:47:14;13.40;97.30
63313;DHT22;49442;45.640;13.812;2024-03-07T14:49:41;13.20;98.90
63313;DHT22;49442;45.640;13.812;2024-03-07T14:52:08;13.10;99.90
63313;DHT22;49442;45.640;13.812;2024-03-07T14:54:39;12.90;98.80
63313;DHT22;49442;45.640;13.812;2024-03-07T14:57:07;12.80;98.70
63313;DHT22;49442;45.640;13.812;2024-03-07T14:59:36;12.70;98.60
63313;DHT22;49442;45.640;13.812;2024-03-07T15:02:02;12.50;97.60
63313;DHT22;49442;45.640;13.812;2024-03-07T15:04:30;12.50;98.40
63313;DHT22;49442;45.640;13.812;2024-03-07T15:06:59;12.50;97.60
63313;DHT22;49442;45.640;13.812;2024-03-07T15:09:28;12.50;98.80
63313;DHT22;49442;45.640;13.812;2024-03-07T15:11:55;12.50;97.80
63313;DHT22;49442;45.640;13.812;2024-03-07T15:14:22;12.50;98.40
63313;DHT22;49442;45.640;13.812;2024-03-07T15:16:47;12.50;96.20
63313;DHT22;49442;45.640;13.812;2024-03-07T15:19:15;12.50;97.80
63313;DHT22;49442;45.640;13.812;2024-03-07T15:21:41;12.60;96.80
63313;DHT22;49442;45.640;13.812;2024-03-07T15:24:07;12.60;97.40
63313;DHT22;49442;45.640;13.812;2024-03-07T15:26:33;12.80;96.70
63313;DHT22;49442;45.640;13.812;2024-03-07T15:28:59;12.80;96.30
63313;DHT22;49442;45.640;13.812;2024-03-07T15:31:26;12.70;95.60
63313;DHT22;49442;45.640;13.812;2024-03-07T15:33:52;12.70;95.20
63313;DHT22;49442;45.640;13.812;2024-03-07T15:36:18;12.70;95.90
63313;DHT22;49442;45.640;13.812;2024-03-07T15:38:44;12.80;94.70
63313;DHT22;49442;45.640;13.812;2024-03-07T15:41:11;12.80;95.30
63313;DHT22;49442;45.640;13.812;2024-03-07T15:43:41;12.70;95.60
63313;DHT22;49442;45.640;13.812;2024-03-07T15:46:08;12.70;94.80
63313;DHT22;49442;45.640;13.812;2024-03-07T15:48:36;12.70;94.60
63313;DHT22;49442;45.640;13.812;2024-03-07T15:51:02;12.60;95.20
63313;DHT22;49442;45.640;13.812;2024-03-07T15:53:29;12.70;95.60
63313;DHT22;49442;45.640;13.812;2024-03-07T15:55:55;12.70;94.50
63313;DHT22;49442;45.640;13.812;2024-03-07T15:58:21;12.70;95.10
63313;DHT22;49442;45.640;13.812;2024-03-07T16:00:48;12.70;95.00
63313;DHT22;49442;45.640;13.812;2024-03-07T16:03:15;12.60;96.00
63313;DHT22;49442;45.640;13.812;2024-03-07T16:05:43;12.50;96.90